• Join FlightAware (Why Join?)
  • Login
  • US Flag 
10:36PM EDT


 

Airport Tracker/Info


-or-


 

Live Flight TrackerFlight Track Log ✈ N43044 ✈ 23-Aug-2013 ✈ KIKV - KANE

Flight Track Log - Related Links

Times and Time Zones

All times are in EDT time to prevent confusion due to time zone crossing. See the N43044 flight status page for this flight to view local times or setup timezone preferences in your user account.

Time Position Orientation Groundspeed Altitude Reporting Facility
EDT Latitude Longitude Course Direction KTS MPH feet Rate Location/Type
05:00PM 41.7058 -93.5433 24° Northeast 106 122 2,400  Level Minneapolis Center
05:01PM 41.7372 -93.5425 North 107 123 3,100 600 Climbing Minneapolis Center
05:02PM 41.7642 -93.5444 357° North 102 117 3,700 600 Climbing Minneapolis Center
05:03PM 41.7956 -93.5439 North 102 117 4,400 600 Climbing Minneapolis Center
05:05PM 41.8225 -93.5458 357° North 99 114 5,100 600 Climbing Minneapolis Center
05:06PM 41.8517 -93.5453 North 96 110 5,700 540 Climbing Minneapolis Center
05:07PM 41.8789 -93.5444 North 100 115 6,300 540 Climbing Minneapolis Center
05:08PM 41.9061 -93.5494 352° North 96 110 6,800 360 Climbing Minneapolis Center
05:09PM 41.9353 -93.5486 North 108 124 7,100 120 Climbing Minneapolis Center
05:10PM 41.9728 -93.5478 North 130 150 7,100  Level Minneapolis Center
05:11PM 42.0081 -93.5411 North 130 150 7,100  Level Minneapolis Center
05:12PM 42.0433 -93.5264 17° North 129 148 7,100 -60 Level Minneapolis Center
05:13PM 42.0861 -93.5181 North 131 151 7,000 -60 Descending Minneapolis Center
05:14PM 42.1247 -93.5100 North 131 151 7,000 120 Level Minneapolis Center
05:15PM 42.1597 -93.5028 North 128 147 7,300 420 Climbing Minneapolis Center
05:16PM 42.1911 -93.4981 North 109 125 7,900 480 Climbing Minneapolis Center
05:17PM 42.2200 -93.4942 North 108 124 8,300 420 Climbing Minneapolis Center
05:18PM 42.2483 -93.4853 13° North 99 114 8,800 300 Climbing Minneapolis Center
05:19PM 42.2778 -93.4786 10° North 108 124 9,000 60 Climbing Minneapolis Center
05:20PM 42.3147 -93.4742 North 121 139 9,000  Level Minneapolis Center
05:21PM 42.3492 -93.4686 North 125 144 9,000  Level Minneapolis Center
05:22PM 42.3833 -93.4681 North 122 140 9,000  Level Minneapolis Center
05:23PM 42.4200 -93.4567 13° North 125 144 9,000  Level Minneapolis Center
05:24PM 42.4547 -93.4481 10° North 126 145 9,000  Level Minneapolis Center
05:25PM 42.4847 -93.4411 10° North 126 145 9,100 60 Climbing Minneapolis Center
05:26PM 42.5275 -93.4311 10° North 128 147 9,200  Climbing Minneapolis Center
05:28PM 42.5619 -93.4239 North 128 147 9,100 -60 Descending Minneapolis Center
05:29PM 42.5944 -93.4167 North 126 145 9,100  Level Minneapolis Center
05:30PM 42.6283 -93.4086 10° North 124 143 9,100 -60 Level Minneapolis Center
05:31PM 42.6633 -93.4019 North 125 144 9,000 -60 Descending Minneapolis Center
05:32PM 42.7039 -93.3897 12° North 125 144 9,000  Level Minneapolis Center
05:33PM 42.7378 -93.3864 North 124 143 9,100  Climbing Minneapolis Center
05:34PM 42.7708 -93.3839 North 122 140 9,100  Level Minneapolis Center
05:35PM 42.8056 -93.3778 North 124 143 9,100  Level Minneapolis Center
05:36PM 42.8461 -93.3758 North 123 142 9,100  Level Minneapolis Center
05:37PM 42.8811 -93.3683 North 126 145 9,100 -60 Level Minneapolis Center
05:38PM 42.9150 -93.3583 12° North 127 146 9,000  Descending Minneapolis Center
05:39PM 42.9500 -93.3517 North 128 147 9,100  Climbing Minneapolis Center
05:40PM 42.9836 -93.3422 12° North 125 144 9,100  Level Minneapolis Center
05:41PM 43.0250 -93.3350 North 126 145 9,100  Level Minneapolis Center
05:42PM 43.0589 -93.3292 North 125 144 9,100  Level Minneapolis Center
05:43PM 43.0922 -93.3264 North 122 140 9,100  Level Minneapolis Center
05:44PM 43.1261 -93.3269 359° North 122 140 9,100  Level Minneapolis Center
05:45PM 43.1600 -93.3281 359° North 122 140 9,100  Level Minneapolis Center
05:46PM 43.2017 -93.3222 North 125 144 9,100  Level Minneapolis Center
05:47PM 43.2361 -93.3172 North 125 144 9,100  Level Minneapolis Center
05:48PM 43.2694 -93.3125 North 124 143 9,100  Level Minneapolis Center
05:49PM 43.3028 -93.3100 North 122 140 9,100 -60 Level Minneapolis Center
05:50PM 43.3367 -93.3050 North 123 142 9,000  Descending Minneapolis Center
05:51PM 43.3769 -93.2947 11° North 122 140 9,100  Climbing Minneapolis Center
05:52PM 43.4106 -93.2944 360° North 123 142 9,100  Level Minneapolis Center
05:53PM 43.4447 -93.2931 North 123 142 9,100  Level Minneapolis Center
05:54PM 43.4786 -93.2892 North 123 142 9,100 -60 Level Minneapolis Center
05:55PM 43.5139 -93.2831 North 125 144 9,000  Descending Minneapolis Center
05:56PM 43.5572 -93.2756 North 127 146 9,100  Climbing Minneapolis Center
05:58PM 43.5908 -93.2694 North 125 144 9,100  Level Minneapolis Center
05:59PM 43.6256 -93.2656 North 124 143 9,100 -60 Level Minneapolis Center
06:00PM 43.6603 -93.2633 North 125 144 9,000  Descending Minneapolis Center
06:01PM 43.7014 -93.2653 358° North 123 142 9,100  Climbing Minneapolis Center
06:02PM 43.7361 -93.2653 360° North 124 143 9,100  Level Minneapolis Center
06:03PM 43.7706 -93.2683 356° North 125 144 9,100  Level Minneapolis Center
06:04PM 43.8053 -93.2719 356° North 124 143 9,100  Level Minneapolis Center
06:05PM 43.8447 -93.2642 North 125 144 9,100  Level Minneapolis Center
06:06PM 43.8800 -93.2589 North 128 147 9,100 -300 Level Minneapolis Center
06:07PM 43.9197 -93.2558 North 134 154 8,600 -540 Descending Minneapolis Center
06:08PM 43.9611 -93.2561 360° North 139 160 8,100 -540 Descending Minneapolis Center
06:09PM 44.0006 -93.2539 North 143 165 7,600 -540 Descending Minneapolis Center
06:10PM 44.0428 -93.2503 North 143 165 7,000 -540 Descending Minneapolis Center
06:11PM 44.0778 -93.2481 North 147 169 6,500 -480 Descending Minneapolis Center
06:12PM 44.1264 -93.2444 North 145 167 6,100 -300 Descending Minneapolis Center
06:13PM 44.1661 -93.2406 North 142 163 6,000  Descending Minneapolis Center
06:14PM 44.2033 -93.2381 North 136 157 6,100  Climbing Minneapolis Center
06:15PM 44.2422 -93.2317 North 140 161 6,100 -60 Level Minneapolis Center
06:16PM 44.2808 -93.2269 North 140 161 6,000 -60 Descending Minneapolis Center
06:17PM 44.3181 -93.2425 343° North 139 160 6,000 -120 Level Minneapolis Center
06:18PM 44.3628 -93.2617 343° North 139 160 5,800 -360 Descending Minneapolis Center
06:19PM 44.4019 -93.2769 344° North 145 167 5,300 -540 Descending Minneapolis Center
06:20PM 44.4419 -93.2944 343° North 149 171 4,800 -600 Descending Minneapolis Center
06:21PM 44.4822 -93.3125 342° North 151 174 4,100 -420 Descending Minneapolis Center
06:22PM 44.5197 -93.3275 344° North 142 163 4,000 -60 Descending Minneapolis Center
06:23PM 44.5556 -93.3419 344° North 135 155 4,000  Level Minneapolis Center
06:25PM 44.5986 -93.3589 344° North 133 153 4,000  Level Minneapolis Center
06:26PM 44.6303 -93.3881 327° Northwest 136 157 4,000  Level Minneapolis Center
06:27PM 44.6614 -93.4183 325° Northwest 135 155 4,000  Level Minneapolis Center
06:28PM 44.6931 -93.4472 327° Northwest 135 155 4,000  Level Minneapolis Center
06:29PM 44.7269 -93.4489 358° North 132 152 4,000  Level Minneapolis Center
06:30PM 44.7569 -93.4258 29° Northeast 124 143 4,000  Level Minneapolis Center
06:31PM 44.7853 -93.3936 39° Northeast 128 147 4,000  Level Minneapolis Center
06:32PM 44.8183 -93.3564 39° Northeast 125 144 4,000  Level Minneapolis Center
06:33PM 44.8453 -93.3242 40° Northeast 126 145 4,100  Climbing Minneapolis Center
06:34PM 44.8736 -93.2911 40° Northeast 132 152 4,000  Descending Minneapolis Center
06:35PM 44.9008 -93.2600 39° Northeast 126 145 4,100  Climbing Minneapolis Center
06:36PM 44.9297 -93.2292 37° Northeast 129 148 4,000  Descending Minneapolis Center
06:37PM 44.9603 -93.2006 34° Northeast 131 151 4,100 -60 Climbing Minneapolis Center
06:38PM 45.0069 -93.2025 358° North 140 161 3,900 -240 Descending Minneapolis Center
06:39PM 45.0439 -93.2089 353° North 142 163 3,600 -480 Descending Minneapolis Center
06:40PM 45.0778 -93.2369 330° Northwest 143 165 3,000 -600 Descending Minneapolis Center
06:41PM 45.1136 -93.2539 342° North 138 159 2,400 -540 Descending Minneapolis Center
06:42PM 45.1508 -93.2539 360° North 135 155 2,000 -300 Descending Minneapolis Center
06:43PM 45.1686 -93.2283 45° Northeast 104 120 1,800 -480 Descending Minneapolis Center
06:44PM 45.1564 -93.2089 132° Southeast 73 84 1,100 -720 Descending Minneapolis Center
06:46PM 45.1449 -93.2102 161° South  Level Estimated